createdAt,value
2018-11-04T00:01:19.479Z,10.50
2018-11-04T00:03:48.597Z,10.60
2018-11-04T00:06:17.717Z,10.60
2018-11-04T00:08:46.835Z,10.70
2018-11-04T00:11:16.029Z,10.80
2018-11-04T00:13:45.125Z,10.70
2018-11-04T00:16:14.219Z,10.50
2018-11-04T00:18:43.313Z,10.30
2018-11-04T00:21:12.429Z,10.40
2018-11-04T00:23:41.522Z,10.50
2018-11-04T00:26:10.786Z,10.50
2018-11-04T00:28:39.865Z,10.40
2018-11-04T00:31:08.974Z,10.40
2018-11-04T00:33:38.114Z,10.30
2018-11-04T00:36:07.390Z,10.50
2018-11-04T00:38:36.474Z,10.50
2018-11-04T00:41:06.079Z,10.50
2018-11-04T00:43:35.498Z,10.50
2018-11-04T00:46:04.814Z,10.40
2018-11-04T00:48:33.986Z,10.40
2018-11-04T00:51:03.101Z,10.50
2018-11-04T00:53:32.197Z,10.50
2018-11-04T00:56:01.285Z,10.60
2018-11-04T00:58:30.351Z,10.60
2018-11-04T01:00:59.451Z,10.40
2018-11-04T01:03:28.519Z,10.40
2018-11-04T01:05:57.722Z,10.20
2018-11-04T01:08:26.786Z,10.20
2018-11-04T01:10:55.898Z,10.20
2018-11-04T01:13:24.962Z,10.30
2018-11-04T01:15:54.158Z,10.30
2018-11-04T01:18:23.309Z,10.40
2018-11-04T01:20:52.410Z,10.40
2018-11-04T01:23:21.474Z,10.40
2018-11-04T01:25:50.565Z,10.40
2018-11-04T01:28:19.681Z,10.40
2018-11-04T01:30:48.762Z,10.30
2018-11-04T01:33:17.845Z,10.30
2018-11-04T01:35:47.065Z,10.40
2018-11-04T01:38:16.125Z,10.30
2018-11-04T01:40:45.221Z,10.30
2018-11-04T01:43:14.293Z,10.30
2018-11-04T01:45:43.598Z,10.30
2018-11-04T01:48:12.704Z,10.30
2018-11-04T01:50:41.833Z,10.20
2018-11-04T01:53:10.971Z,10.30
2018-11-04T01:55:40.111Z,10.40
2018-11-04T01:58:09.237Z,10.30
2018-11-04T02:00:38.454Z,10.40
2018-11-04T02:03:07.575Z,10.40
2018-11-04T02:05:36.707Z,10.30
2018-11-04T02:08:07.382Z,10.30
2018-11-04T02:10:36.517Z,10.40
2018-11-04T02:13:05.895Z,10.30
2018-11-04T02:15:35.087Z,10.30
2018-11-04T02:18:04.230Z,10.30
2018-11-04T02:20:33.342Z,10.40
2018-11-04T02:23:02.472Z,10.40
2018-11-04T02:25:31.667Z,10.40
2018-11-04T02:28:00.796Z,10.30
2018-11-04T02:30:29.901Z,10.40
2018-11-04T02:32:59.028Z,10.30
2018-11-04T02:35:28.142Z,10.30
2018-11-04T02:37:57.275Z,10.20
2018-11-04T02:40:26.379Z,10.40
2018-11-04T02:42:55.514Z,10.40
2018-11-04T02:45:24.622Z,10.30
2018-11-04T02:47:53.766Z,10.20
2018-11-04T02:50:22.879Z,10.20
2018-11-04T02:52:52.040Z,10.10
2018-11-04T02:55:21.150Z,10.10
2018-11-04T02:57:50.254Z,10.30
2018-11-04T03:00:19.302Z,10.20
2018-11-04T03:02:48.385Z,10.10
2018-11-04T03:05:17.556Z,10.10
2018-11-04T03:07:46.654Z,10.20
2018-11-04T03:10:15.706Z,10.20
2018-11-04T03:12:44.797Z,10.30
2018-11-04T03:15:13.910Z,10.20
2018-11-04T03:17:42.984Z,10.20
2018-11-04T03:20:12.069Z,10.10
2018-11-04T03:22:41.201Z,10.20
2018-11-04T03:25:10.299Z,10.20
2018-11-04T03:27:39.541Z,10.20
2018-11-04T03:30:09.429Z,10.10
2018-11-04T03:32:38.495Z,10.00
2018-11-04T03:35:07.695Z,10.00
2018-11-04T03:37:36.789Z,10.00
2018-11-04T03:40:07.597Z,10.10
2018-11-04T03:42:36.662Z,10.10
2018-11-04T03:45:06.750Z,10.10
2018-11-04T03:47:35.855Z,10.00
2018-11-04T03:50:06.454Z,10.00
2018-11-04T03:52:35.548Z,10.00
2018-11-04T03:55:05.283Z,10.00
2018-11-04T03:57:34.371Z,10.00
2018-11-04T04:00:03.452Z,10.10
2018-11-04T04:02:32.530Z,10.10
2018-11-04T04:05:01.589Z,10.00
2018-11-04T04:07:30.654Z,10.10
2018-11-04T04:09:59.717Z,10.10
2018-11-04T04:12:28.791Z,10.00
2018-11-04T04:14:58.003Z,10.10
2018-11-04T04:17:27.077Z,10.10
2018-11-04T04:19:56.135Z,10.10
2018-11-04T04:22:25.224Z,10.00
2018-11-04T04:24:54.357Z,10.00
2018-11-04T04:27:23.427Z,9.90
2018-11-04T04:29:52.540Z,10.00
2018-11-04T04:32:21.612Z,10.10
2018-11-04T04:34:50.668Z,10.00
2018-11-04T04:37:19.750Z,10.00
2018-11-04T04:39:48.802Z,9.90
2018-11-04T04:42:17.893Z,9.80
2018-11-04T04:44:47.406Z,9.90
2018-11-04T04:47:16.522Z,10.00
2018-11-04T04:49:45.588Z,10.00
2018-11-04T04:52:14.704Z,10.00
2018-11-04T04:54:43.811Z,10.00
2018-11-04T04:57:12.890Z,10.10
2018-11-04T04:59:41.942Z,10.00
2018-11-04T05:02:11.040Z,10.10
2018-11-04T05:04:40.220Z,10.10
2018-11-04T05:07:09.314Z,10.10
2018-11-04T05:09:38.394Z,10.10
2018-11-04T05:12:07.507Z,10.10
2018-11-04T05:14:36.575Z,10.10
2018-11-04T05:17:06.042Z,10.00
2018-11-04T05:19:35.080Z,9.90
2018-11-04T05:22:04.171Z,9.90
2018-11-04T05:24:33.366Z,10.00
2018-11-04T05:27:02.456Z,9.90
2018-11-04T05:29:31.499Z,9.90
2018-11-04T05:32:00.561Z,9.90
2018-11-04T05:34:30.062Z,9.90
2018-11-04T05:36:59.854Z,9.90
2018-11-04T05:39:28.915Z,9.90
2018-11-04T05:41:57.982Z,9.90
2018-11-04T05:44:27.150Z,9.90
2018-11-04T05:46:56.248Z,10.00
2018-11-04T05:49:25.305Z,10.10
2018-11-04T05:51:54.400Z,10.00
2018-11-04T05:54:23.476Z,10.00
2018-11-04T05:56:52.547Z,9.90
2018-11-04T05:59:21.590Z,9.90
2018-11-04T06:01:50.675Z,10.00
2018-11-04T06:04:19.820Z,9.90
2018-11-04T06:06:48.890Z,9.90
2018-11-04T06:09:17.960Z,10.00
2018-11-04T06:11:47.034Z,10.00
2018-11-04T06:14:16.226Z,9.90
2018-11-04T06:16:45.280Z,10.00
2018-11-04T06:19:14.417Z,10.00
2018-11-04T06:21:44.270Z,10.00
2018-11-04T06:24:14.151Z,10.00
2018-11-04T06:26:43.194Z,10.00
2018-11-04T06:29:12.287Z,10.00
2018-11-04T06:31:41.336Z,9.90
2018-11-04T06:34:10.406Z,9.90
2018-11-04T06:36:39.475Z,10.00
2018-11-04T06:39:09.322Z,10.10
2018-11-04T06:41:38.509Z,10.10
2018-11-04T06:44:08.046Z,10.20
2018-11-04T06:46:37.097Z,10.10
2018-11-04T06:49:06.223Z,10.10
2018-11-04T06:51:35.298Z,10.00
2018-11-04T06:54:04.459Z,10.10
2018-11-04T06:56:33.580Z,10.10
2018-11-04T06:59:02.666Z,10.10
2018-11-04T07:01:31.736Z,10.20
2018-11-04T07:04:12.050Z,10.20
2018-11-04T07:06:41.104Z,10.30
2018-11-04T07:09:10.244Z,10.20
2018-11-04T07:11:39.292Z,10.20
2018-11-04T07:14:08.381Z,10.30
2018-11-04T07:16:37.452Z,10.20
2018-11-04T07:19:06.637Z,10.10
2018-11-04T07:21:35.808Z,10.20
2018-11-04T07:24:05.678Z,10.20
2018-11-04T07:26:35.339Z,10.30
2018-11-04T07:29:04.708Z,10.30
2018-11-04T07:31:33.772Z,10.40
2018-11-04T07:34:02.965Z,10.30
2018-11-04T07:36:32.038Z,10.40
2018-11-04T07:39:01.113Z,10.50
2018-11-04T07:41:30.163Z,10.60
2018-11-04T07:44:00.298Z,10.60
2018-11-04T07:46:29.355Z,10.60
2018-11-04T07:48:58.447Z,10.50
2018-11-04T07:51:27.581Z,10.50
2018-11-04T07:53:56.720Z,10.60
2018-11-04T07:56:25.825Z,10.50
2018-11-04T07:58:54.959Z,10.40
2018-11-04T08:01:24.090Z,10.40
2018-11-04T08:03:53.300Z,10.80
2018-11-04T08:06:22.419Z,10.90
2018-11-04T08:08:51.583Z,10.60
2018-11-04T08:11:20.701Z,10.60
2018-11-04T08:13:49.921Z,10.50
2018-11-04T08:16:19.074Z,10.60
2018-11-04T08:18:48.226Z,10.60
2018-11-04T08:21:17.370Z,10.70
2018-11-04T08:23:46.562Z,10.70
2018-11-04T08:26:15.686Z,10.70
2018-11-04T08:28:44.839Z,10.70
2018-11-04T08:31:13.991Z,10.60
2018-11-04T08:33:43.137Z,10.50
2018-11-04T08:36:12.577Z,10.40
2018-11-04T08:38:41.778Z,10.40
2018-11-04T08:41:10.917Z,10.50
2018-11-04T08:43:40.171Z,10.60
2018-11-04T08:46:09.299Z,10.60
2018-11-04T08:48:38.431Z,10.50
2018-11-04T08:51:07.758Z,10.60
2018-11-04T08:53:36.941Z,10.80
2018-11-04T08:56:06.160Z,10.70
2018-11-04T08:58:35.270Z,10.70
2018-11-04T09:01:04.655Z,10.90
2018-11-04T09:03:33.739Z,11.40
2018-11-04T09:06:02.804Z,11.20
2018-11-04T09:08:31.887Z,11.00
2018-11-04T09:11:00.943Z,10.80
2018-11-04T09:13:30.007Z,10.90
2018-11-04T09:15:59.095Z,10.90
2018-11-04T09:18:28.191Z,10.90
2018-11-04T09:20:57.261Z,10.90
2018-11-04T09:23:26.388Z,11.10
2018-11-04T09:25:55.442Z,11.00
2018-11-04T09:28:24.521Z,10.80
2018-11-04T09:30:53.622Z,10.90
2018-11-04T09:33:22.817Z,10.80
2018-11-04T09:35:52.134Z,10.80
2018-11-04T09:38:20.983Z,10.90
2018-11-04T09:40:50.061Z,11.10
2018-11-04T09:43:19.185Z,11.10
2018-11-04T09:45:48.277Z,11.20
2018-11-04T09:48:17.367Z,11.20
2018-11-04T09:50:46.447Z,11.10
2018-11-04T09:53:15.531Z,11.10
2018-11-04T09:55:44.618Z,11.20
2018-11-04T09:58:13.680Z,11.00
2018-11-04T10:00:42.779Z,11.00
2018-11-04T10:03:11.946Z,11.00
2018-11-04T10:05:41.051Z,11.00
2018-11-04T10:08:10.139Z,11.00
2018-11-04T10:10:39.234Z,11.00
2018-11-04T10:13:08.361Z,11.10
2018-11-04T10:15:37.451Z,11.10
2018-11-04T10:18:06.511Z,11.10
2018-11-04T10:20:36.005Z,11.00
2018-11-04T10:23:05.297Z,11.10
2018-11-04T10:25:34.389Z,11.30
2018-11-04T10:28:03.462Z,11.20
2018-11-04T10:30:32.654Z,11.20
2018-11-04T10:33:01.633Z,11.10
2018-11-04T10:35:30.715Z,11.10
2018-11-04T10:37:59.768Z,11.10
2018-11-04T10:40:28.842Z,11.20
2018-11-04T10:42:57.983Z,11.30
2018-11-04T10:45:27.073Z,11.30
2018-11-04T10:47:56.147Z,11.10
2018-11-04T10:50:25.248Z,11.20
2018-11-04T10:52:54.418Z,11.20
2018-11-04T10:55:23.499Z,11.40
2018-11-04T10:57:52.564Z,11.40
2018-11-04T11:00:27.006Z,11.20
2018-11-04T11:02:56.058Z,11.10
2018-11-04T11:05:25.154Z,11.20
2018-11-04T11:07:54.197Z,11.30
2018-11-04T11:10:23.294Z,11.30
2018-11-04T11:12:52.338Z,11.10
2018-11-04T11:15:21.421Z,11.10
2018-11-04T11:17:50.470Z,11.10
2018-11-04T11:20:19.578Z,11.20
2018-11-04T11:22:48.947Z,11.20
2018-11-04T11:25:17.920Z,11.10
2018-11-04T11:27:47.061Z,11.10
2018-11-04T11:30:16.361Z,11.20
2018-11-04T11:32:45.292Z,11.20
2018-11-04T11:35:14.370Z,11.40
2018-11-04T11:37:43.477Z,11.40
2018-11-04T11:40:12.554Z,11.30
2018-11-04T11:42:41.666Z,11.40
2018-11-04T11:45:10.726Z,11.50
2018-11-04T11:47:39.832Z,11.60
2018-11-04T11:50:09.310Z,11.60
2018-11-04T11:52:38.521Z,11.60
2018-11-04T11:55:07.907Z,11.70
2018-11-04T11:57:37.038Z,11.70
2018-11-04T12:00:07.946Z,11.70
2018-11-04T12:02:37.786Z,11.70
2018-11-04T12:05:07.212Z,11.70
2018-11-04T12:07:36.372Z,11.80
2018-11-04T12:10:07.434Z,11.80
2018-11-04T12:12:36.579Z,11.80
2018-11-04T12:15:07.234Z,11.80
2018-11-04T12:17:36.394Z,11.70
2018-11-04T12:20:07.194Z,11.70
2018-11-04T12:22:36.305Z,11.60
2018-11-04T12:25:06.615Z,11.70
2018-11-04T12:27:35.746Z,11.80
2018-11-04T12:30:06.023Z,11.80
2018-11-04T12:32:35.175Z,11.80
2018-11-04T12:35:04.392Z,11.80
2018-11-04T12:37:33.514Z,11.50
2018-11-04T12:40:02.672Z,11.40
2018-11-04T12:42:31.866Z,11.40
2018-11-04T12:45:00.995Z,11.40
2018-11-04T12:47:30.127Z,11.50
2018-11-04T12:49:59.232Z,11.60
2018-11-04T12:52:28.507Z,11.70
2018-11-04T12:54:57.615Z,11.50
2018-11-04T12:57:26.750Z,11.50
2018-11-04T12:59:56.072Z,11.60
2018-11-04T13:02:25.218Z,11.70
2018-11-04T13:04:54.344Z,11.70
2018-11-04T13:07:23.471Z,11.60
2018-11-04T13:09:52.580Z,11.70
2018-11-04T13:12:21.711Z,11.70
2018-11-04T13:14:50.826Z,11.70
2018-11-04T13:17:19.972Z,11.70
2018-11-04T13:19:49.091Z,11.70
2018-11-04T13:22:18.351Z,11.60
2018-11-04T13:24:47.454Z,11.60
2018-11-04T13:27:16.590Z,11.70
2018-11-04T13:29:45.709Z,11.70
2018-11-04T13:32:14.918Z,11.70
2018-11-04T13:34:44.008Z,11.60
2018-11-04T13:37:13.143Z,11.50
2018-11-04T13:39:42.270Z,11.60
2018-11-04T13:42:11.396Z,11.50
2018-11-04T13:44:40.514Z,11.60
2018-11-04T13:47:09.658Z,11.60
2018-11-04T13:49:38.913Z,11.70
2018-11-04T13:52:08.022Z,11.60
2018-11-04T13:54:37.086Z,11.60
2018-11-04T13:57:06.187Z,11.50
2018-11-04T13:59:35.391Z,11.50
2018-11-04T14:02:04.584Z,11.60
2018-11-04T14:04:33.703Z,11.60
2018-11-04T14:07:02.782Z,11.60
2018-11-04T14:09:31.845Z,11.70
2018-11-04T14:12:01.111Z,11.60
2018-11-04T14:14:30.187Z,11.60
2018-11-04T14:16:59.366Z,11.70
2018-11-04T14:19:28.447Z,11.70
2018-11-04T14:21:57.522Z,11.60
2018-11-04T14:24:26.618Z,11.50
2018-11-04T14:26:55.721Z,11.50
2018-11-04T14:29:24.830Z,11.50
2018-11-04T14:31:53.905Z,11.60
2018-11-04T14:34:22.995Z,11.60
2018-11-04T14:36:52.039Z,11.60
2018-11-04T14:39:21.123Z,11.60
2018-11-04T14:41:50.350Z,11.60
2018-11-04T14:44:19.459Z,11.50
2018-11-04T14:46:48.509Z,11.50
2018-11-04T14:49:17.591Z,11.50
2018-11-04T14:51:46.786Z,11.50
2018-11-04T14:54:15.909Z,11.40
2018-11-04T14:56:45.027Z,11.40
2018-11-04T14:59:14.150Z,11.30
2018-11-04T15:01:43.368Z,11.20
2018-11-04T15:04:12.438Z,11.20
2018-11-04T15:06:41.541Z,11.20
2018-11-04T15:09:10.691Z,11.20
2018-11-04T15:11:39.804Z,11.20
2018-11-04T15:14:08.955Z,11.20
2018-11-04T15:16:38.055Z,11.20
2018-11-04T15:19:07.246Z,11.10
2018-11-04T15:21:36.417Z,11.10
2018-11-04T15:24:05.566Z,11.10
2018-11-04T15:26:34.753Z,11.10
2018-11-04T15:29:03.844Z,11.00
2018-11-04T15:31:32.971Z,11.10
2018-11-04T15:34:02.206Z,10.90
2018-11-04T15:36:31.242Z,10.80
2018-11-04T15:39:00.422Z,10.90
2018-11-04T15:41:29.513Z,10.90
2018-11-04T15:43:58.642Z,10.80
2018-11-04T15:46:27.779Z,10.90
2018-11-04T15:48:57.068Z,10.80
2018-11-04T15:51:26.307Z,10.80
2018-11-04T15:53:55.470Z,10.80
2018-11-04T15:56:24.571Z,10.70
2018-11-04T15:58:53.695Z,10.50
2018-11-04T16:01:22.819Z,10.40
2018-11-04T16:03:51.943Z,10.40
2018-11-04T16:06:21.054Z,10.50
2018-11-04T16:08:50.182Z,10.40
2018-11-04T16:11:19.383Z,10.40
2018-11-04T16:13:48.523Z,10.50
2018-11-04T16:16:17.644Z,10.20
2018-11-04T16:18:46.895Z,10.20
2018-11-04T16:21:16.017Z,10.30
2018-11-04T16:23:45.147Z,10.20
2018-11-04T16:26:14.279Z,10.00
2018-11-04T16:28:43.404Z,10.10
2018-11-04T16:31:12.663Z,10.00
2018-11-04T16:33:42.013Z,9.90
2018-11-04T16:36:11.119Z,9.90
2018-11-04T16:38:40.262Z,10.00
2018-11-04T16:41:09.447Z,10.10
2018-11-04T16:46:30.016Z,10.00
2018-11-04T16:48:59.142Z,10.00
2018-11-04T16:51:28.234Z,10.00
2018-11-04T16:53:57.383Z,9.90
2018-11-04T16:56:26.499Z,10.00
2018-11-04T16:58:55.614Z,10.00
2018-11-04T17:01:24.718Z,9.90
2018-11-04T17:03:53.913Z,9.80
2018-11-04T17:06:23.062Z,9.50
2018-11-04T17:08:52.186Z,9.50
2018-11-04T17:11:21.382Z,9.70
2018-11-04T17:13:50.489Z,9.60
2018-11-04T17:16:19.599Z,9.80
2018-11-04T17:18:48.738Z,9.90
2018-11-04T17:21:17.950Z,9.80
2018-11-04T17:23:47.083Z,9.60
2018-11-04T17:26:16.195Z,9.40
2018-11-04T17:28:45.342Z,9.30
2018-11-04T17:31:14.539Z,9.40
2018-11-04T17:33:43.662Z,9.40
2018-11-04T17:36:12.905Z,9.40
2018-11-04T17:38:41.986Z,9.30
2018-11-04T17:41:11.106Z,9.30
2018-11-04T17:43:40.546Z,9.20
2018-11-04T17:46:09.826Z,8.90
2018-11-04T17:48:39.044Z,9.10
2018-11-04T17:51:08.154Z,9.10
2018-11-04T17:53:37.253Z,9.20
2018-11-04T17:56:06.744Z,9.20
2018-11-04T17:58:36.055Z,9.20
2018-11-04T18:01:05.378Z,9.00
2018-11-04T18:03:34.511Z,8.90
2018-11-04T18:06:03.575Z,9.00
2018-11-04T18:08:33.049Z,9.20
2018-11-04T18:11:02.222Z,9.30
2018-11-04T18:13:31.308Z,9.20
2018-11-04T18:16:00.368Z,9.30
2018-11-04T18:18:29.443Z,9.20
2018-11-04T18:20:58.498Z,9.00
2018-11-04T18:23:27.611Z,8.90
2018-11-04T18:25:56.670Z,8.90
2018-11-04T18:28:25.736Z,9.00
2018-11-04T18:30:54.816Z,8.90
2018-11-04T18:33:23.883Z,9.00
2018-11-04T18:35:53.039Z,9.00
2018-11-04T18:38:22.048Z,8.80
2018-11-04T18:40:51.875Z,8.90
2018-11-04T18:43:20.939Z,8.80
2018-11-04T18:45:50.089Z,8.80
2018-11-04T18:48:19.273Z,8.90
2018-11-04T18:50:48.410Z,8.90
2018-11-04T18:53:17.488Z,9.00
2018-11-04T18:55:46.564Z,8.80
2018-11-04T18:58:15.623Z,8.60
2018-11-04T19:00:44.727Z,8.50
2018-11-04T19:03:13.786Z,8.50
2018-11-04T19:05:42.866Z,8.60
2018-11-04T19:08:11.922Z,8.70
2018-11-04T19:10:41.009Z,8.80
2018-11-04T19:13:10.086Z,8.70
2018-11-04T19:15:39.166Z,8.50
2018-11-04T19:18:08.231Z,8.50
2018-11-04T19:20:37.353Z,8.40
2018-11-04T19:23:06.469Z,8.20
2018-11-04T19:25:35.567Z,8.40
2018-11-04T19:28:04.656Z,8.60
2018-11-04T19:30:33.838Z,8.60
2018-11-04T19:33:02.932Z,8.40
2018-11-04T19:35:32.003Z,8.30
2018-11-04T19:38:01.059Z,8.30
2018-11-04T19:40:30.130Z,8.20
2018-11-04T19:42:59.206Z,8.00
2018-11-04T19:45:28.302Z,7.90
2018-11-04T19:47:57.431Z,8.10
2018-11-04T19:50:26.642Z,8.10
2018-11-04T19:52:55.702Z,8.10
2018-11-04T19:55:24.796Z,8.20
2018-11-04T19:57:53.845Z,8.30
2018-11-04T20:00:22.983Z,8.30
2018-11-04T20:02:52.040Z,8.30
2018-11-04T20:05:21.224Z,8.40
2018-11-04T20:07:50.231Z,8.30
2018-11-04T20:10:20.166Z,8.20
2018-11-04T20:12:54.567Z,8.00
2018-11-04T20:15:23.642Z,7.90
2018-11-04T20:17:52.747Z,8.00
2018-11-04T20:20:24.439Z,8.00
2018-11-04T20:22:53.520Z,7.90
2018-11-04T20:25:28.076Z,7.80
2018-11-04T20:27:57.138Z,7.80
2018-11-04T20:30:26.247Z,7.80
2018-11-04T20:33:01.847Z,7.60
2018-11-04T20:35:30.915Z,7.60
2018-11-04T20:38:00.084Z,7.60
2018-11-04T20:40:34.611Z,7.60
2018-11-04T20:43:03.664Z,7.80
2018-11-04T20:45:32.746Z,7.90
2018-11-04T20:48:07.094Z,7.80
2018-11-04T20:50:41.559Z,7.90
2018-11-04T20:53:10.701Z,7.70
2018-11-04T20:55:45.282Z,7.30
2018-11-04T20:58:14.529Z,7.00
2018-11-04T21:00:43.652Z,7.10
2018-11-04T21:03:12.761Z,7.00
2018-11-04T21:05:41.886Z,7.00
2018-11-04T21:08:11.006Z,7.20
2018-11-04T21:10:40.127Z,7.30
2018-11-04T21:13:09.218Z,7.40
2018-11-04T21:15:38.443Z,7.50
2018-11-04T21:18:07.514Z,7.30
2018-11-04T21:20:36.638Z,6.90
2018-11-04T21:23:05.733Z,6.90
2018-11-04T21:25:35.154Z,7.10
2018-11-04T21:28:04.255Z,7.10
2018-11-04T21:30:33.282Z,7.00
2018-11-04T21:33:02.381Z,7.00
2018-11-04T21:35:31.515Z,7.10
2018-11-04T21:38:00.725Z,7.20
2018-11-04T21:40:29.890Z,7.00
2018-11-04T21:42:59.019Z,7.00
2018-11-04T21:45:28.157Z,6.90
2018-11-04T21:47:57.261Z,7.00
2018-11-04T21:50:26.498Z,7.00
2018-11-04T21:52:55.538Z,6.90
2018-11-04T21:55:24.721Z,7.10
2018-11-04T21:57:53.663Z,7.20
2018-11-04T22:00:22.733Z,6.90
2018-11-04T22:02:51.990Z,7.00
2018-11-04T22:05:20.960Z,6.90
2018-11-04T22:07:50.023Z,6.90
2018-11-04T22:10:19.225Z,6.90
2018-11-04T22:12:48.263Z,7.10
2018-11-04T22:15:17.323Z,7.00
2018-11-04T22:17:46.400Z,7.10
2018-11-04T22:20:15.563Z,7.10
2018-11-04T22:22:44.665Z,7.10
2018-11-04T22:25:13.735Z,7.10
2018-11-04T22:27:42.806Z,6.90
2018-11-04T22:30:12.714Z,6.70
2018-11-04T22:32:41.826Z,6.60
2018-11-04T22:35:11.939Z,6.80
2018-11-04T22:37:41.067Z,6.80
2018-11-04T22:40:11.576Z,6.90
2018-11-04T22:42:41.506Z,7.00
2018-11-04T22:45:11.602Z,7.10
2018-11-04T22:47:41.742Z,6.80
2018-11-04T22:50:13.347Z,7.00
2018-11-04T22:52:43.002Z,7.00
2018-11-04T22:55:12.995Z,6.90
2018-11-04T22:57:42.623Z,6.80
2018-11-04T23:00:17.499Z,6.90
2018-11-04T23:02:48.204Z,7.00
2018-11-04T23:05:22.683Z,7.10
2018-11-04T23:07:52.024Z,6.90
2018-11-04T23:10:21.214Z,6.90
2018-11-04T23:12:50.293Z,7.10
2018-11-04T23:15:19.375Z,7.20
2018-11-04T23:17:48.454Z,7.10
2018-11-04T23:20:17.503Z,7.00
2018-11-04T23:22:46.590Z,6.90
2018-11-04T23:25:16.079Z,7.20
2018-11-04T23:27:45.172Z,7.40
2018-11-04T23:30:18.562Z,7.20
2018-11-04T23:32:48.139Z,7.20
2018-11-04T23:35:17.186Z,7.10
2018-11-04T23:37:46.294Z,7.20
2018-11-04T23:40:15.464Z,7.30
2018-11-04T23:42:44.534Z,7.20
2018-11-04T23:45:14.527Z,7.10
2018-11-04T23:47:44.027Z,6.90
2018-11-04T23:50:16.550Z,7.30
2018-11-04T23:52:45.976Z,7.20
2018-11-04T23:55:15.576Z,7.00
2018-11-04T23:57:44.673Z,7.20
